Time;durP1;ratioP1;P1;durP2;ratioP2;P2;SDS_P1;SDS_P2;PMS_P1;PMS_P2;Temp;Humidity;BMP_temperature;BMP_pressure;BME280_temperature;BME280_humidity;BME280_pressure;Samples;Min_cycle;Max_cycle;Signal;HPM_P1;HPM_P2
2022/05/27 00:01:22;;;;;;;5.80;1.20;;;;;;;16.52;100.00;97913.75;5069461;28;20102;-79
2022/05/27 00:03:49;;;;;;;3.67;1.17;;;;;;;16.59;100.00;97929.56;5092363;28;20059;-80
2022/05/27 00:06:16;;;;;;;6.22;1.13;;;;;;;16.57;100.00;97927.16;5109373;28;20040;-81
2022/05/27 00:08:42;;;;;;;4.50;1.35;;;;;;;16.55;100.00;97921.25;5092564;28;20057;-79
2022/05/27 00:11:09;;;;;;;3.00;0.95;;;;;;;16.54;100.00;97916.16;5106097;28;20098;-83
2022/05/27 00:13:36;;;;;;;5.15;1.38;;;;;;;16.51;100.00;97908.59;5079382;28;20052;-81
2022/05/27 00:16:03;;;;;;;3.85;1.15;;;;;;;16.47;100.00;97913.97;5092848;28;20048;-82
2022/05/27 00:18:32;;;;;;;4.63;1.10;;;;;;;16.57;100.00;97908.03;5076435;28;20055;-84
2022/05/27 00:21:02;;;;;;;4.15;1.33;;;;;;;16.58;100.00;97890.50;5077073;28;20533;-83
2022/05/27 00:23:29;;;;;;;4.07;0.95;;;;;;;16.58;100.00;97897.91;5077115;28;20453;-83
2022/05/27 00:25:56;;;;;;;4.38;1.30;;;;;;;16.55;100.00;97899.38;5076172;28;20189;-83
2022/05/27 00:28:25;;;;;;;6.90;1.30;;;;;;;16.54;100.00;97897.78;5084942;28;20074;-82
2022/05/27 00:30:52;;;;;;;3.38;1.30;;;;;;;16.49;100.00;97894.50;5096485;28;20109;-82
2022/05/27 00:33:20;;;;;;;5.07;1.42;;;;;;;16.53;100.00;97889.94;5081756;28;20106;-83
2022/05/27 00:35:47;;;;;;;4.32;1.15;;;;;;;16.52;100.00;97886.41;5099473;28;20072;-81
2022/05/27 00:38:13;;;;;;;7.07;1.23;;;;;;;16.54;100.00;97884.13;5097903;28;20090;-80
2022/05/27 00:40:46;;;;;;;8.75;1.40;;;;;;;16.51;100.00;97897.69;5095288;28;20442;-83
2022/05/27 00:43:14;;;;;;;3.78;0.98;;;;;;;16.40;100.00;97880.97;5095655;28;20097;-82
2022/05/27 00:45:44;;;;;;;6.30;1.10;;;;;;;16.44;100.00;97864.69;5077912;28;20051;-82
2022/05/27 00:48:14;;;;;;;5.72;1.17;;;;;;;16.42;100.00;97884.13;5094760;28;20048;-82
2022/05/27 00:50:44;;;;;;;5.47;1.13;;;;;;;16.41;100.00;97888.03;5093391;28;20052;-82
2022/05/27 00:53:15;;;;;;;7.13;1.30;;;;;;;16.49;100.00;97875.38;5074811;28;20040;-83
2022/05/27 00:55:46;;;;;;;4.93;1.20;;;;;;;16.49;100.00;97889.03;5074367;28;20048;-83
2022/05/27 00:58:27;;;;;;;5.28;1.67;;;;;;;16.47;100.00;97886.63;5091420;28;20485;-79
2022/05/27 01:00:55;;;;;;;5.80;1.08;;;;;;;16.44;100.00;97876.38;5074660;28;20543;-81
2022/05/27 01:03:24;;;;;;;7.20;1.63;;;;;;;16.45;100.00;97882.66;5073739;28;20068;-80
2022/05/27 01:05:51;;;;;;;4.35;1.38;;;;;;;16.47;100.00;97885.81;5076023;28;20048;-83
2022/05/27 01:08:19;;;;;;;7.35;1.60;;;;;;;16.50;100.00;97876.94;5074914;28;20052;-81
2022/05/27 01:10:58;;;;;;;4.28;1.20;;;;;;;16.45;100.00;97880.72;5075280;28;20574;-80
2022/05/27 01:13:37;;;;;;;9.50;1.60;;;;;;;16.47;100.00;97872.97;5076311;28;20044;-81
2022/05/27 01:16:20;;;;;;;6.10;1.52;;;;;;;16.42;100.00;97873.22;5076982;28;20411;-82
2022/05/27 01:22:05;;;;;;;3.47;1.35;;;;;;;16.35;100.00;97845.69;5101128;28;20063;-81
2022/05/27 01:24:58;;;;;;;5.13;1.23;;;;;;;16.32;100.00;97851.03;5098571;28;20048;-82
2022/05/27 01:27:54;;;;;;;3.92;1.30;;;;;;;16.30;100.00;97850.59;5079108;28;20060;-84
2022/05/27 01:30:44;;;;;;;5.00;1.42;;;;;;;16.28;100.00;97845.50;5078111;28;20056;-83
2022/05/27 01:33:25;;;;;;;7.43;1.60;;;;;;;16.30;100.00;97842.41;5062891;28;20048;-82
2022/05/27 01:36:05;;;;;;;5.25;1.50;;;;;;;16.26;100.00;97836.81;5096906;28;20058;-84
2022/05/27 01:38:43;;;;;;;3.58;1.40;;;;;;;16.26;100.00;97844.25;5079030;28;20101;-81
2022/05/27 01:41:30;;;;;;;6.18;1.63;;;;;;;16.23;100.00;97843.00;5074814;28;20056;-81
2022/05/27 01:44:02;;;;;;;7.30;1.40;;;;;;;16.19;100.00;97831.16;5074520;28;20056;-83
2022/05/27 01:46:38;;;;;;;7.15;1.67;;;;;;;16.14;100.00;97823.22;5075446;28;20140;-81
2022/05/27 01:49:29;;;;;;;4.05;1.38;;;;;;;16.17;100.00;97833.44;5075734;28;20073;-83
2022/05/27 01:52:14;;;;;;;5.78;1.30;;;;;;;16.07;100.00;97825.75;5092716;28;20071;-82
2022/05/27 01:55:05;;;;;;;5.40;1.60;;;;;;;16.06;100.00;97822.22;5076632;28;20051;-81
2022/05/27 01:57:44;;;;;;;6.50;1.63;;;;;;;16.03;100.00;97825.63;5097000;28;20183;-81
2022/05/27 02:00:12;;;;;;;7.47;1.60;;;;;;;15.98;100.00;97828.59;5082315;28;20040;-82
2022/05/27 02:03:05;;;;;;;6.43;1.60;;;;;;;15.89;100.00;97816.22;5074325;28;20135;-83
2022/05/27 02:05:40;;;;;;;8.73;1.45;;;;;;;15.77;100.00;97808.84;5062748;28;20078;-83
2022/05/27 02:08:14;;;;;;;3.90;1.30;;;;;;;15.95;100.00;97820.31;5092152;28;20046;-82
2022/05/27 02:10:51;;;;;;;3.95;1.42;;;;;;;15.91;100.00;97824.88;5091379;28;20127;-84
2022/05/27 02:13:47;;;;;;;6.93;1.15;;;;;;;15.85;100.00;97816.13;5097678;28;20046;-83
2022/05/27 02:16:20;;;;;;;11.80;1.60;;;;;;;15.82;100.00;97800.41;5081026;28;20468;-82
2022/05/27 02:18:54;;;;;;;5.70;1.70;;;;;;;15.87;100.00;97813.81;5099361;28;20058;-83
2022/05/27 02:21:42;;;;;;;5.88;1.63;;;;;;;15.88;100.00;97806.44;5100611;28;20093;-84
2022/05/27 02:24:18;;;;;;;5.22;1.58;;;;;;;15.87;100.00;97813.06;5096865;28;20048;-82
2022/05/27 02:26:50;;;;;;;6.40;1.60;;;;;;;15.90;100.00;97817.81;5097748;28;20087;-83
2022/05/27 02:29:22;;;;;;;6.30;1.40;;;;;;;15.88;100.00;97809.97;5075101;28;20606;-82
2022/05/27 02:31:55;;;;;;;4.22;1.23;;;;;;;15.83;100.00;97793.81;5094793;28;20083;-80
2022/05/27 02:37:28;;;;;;;7.10;1.67;;;;;;;15.83;100.00;97795.75;5097776;28;20052;-86
2022/05/27 02:39:58;;;;;;;3.67;1.33;;;;;;;15.72;100.00;97784.53;5097095;28;20048;-84
2022/05/27 02:42:49;;;;;;;6.47;1.52;;;;;;;15.71;100.00;97793.88;5099949;28;20044;-83
2022/05/27 02:45:25;;;;;;;6.97;1.63;;;;;;;15.59;100.00;97783.75;5091862;28;20065;-84
2022/05/27 02:48:14;;;;;;;10.70;1.40;;;;;;;15.53;100.00;97782.41;5111596;28;20059;-82
2022/05/27 02:51:01;;;;;;;5.13;1.50;;;;;;;15.47;100.00;97788.44;5111514;28;20059;-81
2022/05/27 02:53:38;;;;;;;4.70;1.42;;;;;;;15.47;100.00;97782.97;5111878;28;20051;-81
2022/05/27 02:56:24;;;;;;;6.50;1.55;;;;;;;15.47;100.00;97780.25;5103964;28;20070;-82
2022/05/27 02:58:50;;;;;;;;;;;;;;;15.51;100.00;97772.97;5116486;28;20059;-80
2022/05/27 03:01:17;;;;;;;6.07;1.70;;;;;;;15.51;100.00;97765.56;5116242;28;19920;-81
2022/05/27 03:03:49;;;;;;;5.07;1.58;;;;;;;15.65;100.00;97778.06;5091318;28;20091;-83
2022/05/27 03:06:36;;;;;;;3.28;1.58;;;;;;;15.64;100.00;97766.34;5080339;28;20628;-82
2022/05/27 03:09:09;;;;;;;3.75;1.30;;;;;;;15.70;100.00;97778.63;5078976;28;20049;-83
2022/05/27 03:11:48;;;;;;;7.57;1.42;;;;;;;15.82;100.00;97777.81;5082460;28;20094;-83
2022/05/27 03:14:23;;;;;;;4.43;1.50;;;;;;;15.83;100.00;97773.91;5100204;28;20048;-82
2022/05/27 03:16:50;;;;;;;;;;;;;;;15.80;100.00;97789.06;5092211;28;20084;-80
2022/05/27 03:19:40;;;;;;;5.40;1.45;;;;;;;15.76;100.00;97779.97;5075853;28;19920;-81
2022/05/27 03:22:32;;;;;;;5.30;1.60;;;;;;;15.66;100.00;97777.72;5076642;28;20480;-82
2022/05/27 03:25:07;;;;;;;4.82;1.65;;;;;;;15.55;100.00;97774.66;5077144;28;20052;-81
2022/05/27 03:27:43;;;;;;;;;;;;;;;15.50;100.00;97772.19;5078656;28;20062;-85
2022/05/27 03:30:30;;;;;;;6.65;1.52;;;;;;;15.39;100.00;97759.28;5101991;28;19951;-84
2022/05/27 03:33:17;;;;;;;8.07;1.90;;;;;;;15.42;100.00;97766.81;5083615;28;20094;-82
2022/05/27 03:35:53;;;;;;;7.10;1.80;;;;;;;15.42;100.00;97769.53;5102187;28;20052;-86
2022/05/27 03:38:48;;;;;;;8.20;1.88;;;;;;;15.39;100.00;97772.94;5102330;28;20040;-85
2022/05/27 03:41:38;;;;;;;4.28;1.40;;;;;;;15.36;100.00;97768.16;5099477;28;20269;-84
2022/05/27 03:44:05;;;;;;;5.85;1.70;;;;;;;15.35;100.00;97767.41;5080695;28;20040;-84
2022/05/27 03:46:37;;;;;;;7.93;1.73;;;;;;;15.32;100.00;97753.63;5091330;28;20064;-84
2022/05/27 03:49:07;;;;;;;7.97;1.60;;;;;;;15.35;100.00;97759.22;5083991;28;20066;-83
2022/05/27 03:51:38;;;;;;;6.03;1.70;;;;;;;15.33;100.00;97755.22;5093098;28;20048;-82
2022/05/27 03:54:10;;;;;;;6.05;1.73;;;;;;;15.31;100.00;97749.31;5093164;28;20066;-81
2022/05/27 03:56:39;;;;;;;8.25;1.58;;;;;;;15.24;100.00;97747.16;5077694;28;20082;-85
2022/05/27 03:59:09;;;;;;;6.63;1.70;;;;;;;15.32;100.00;97748.97;5076754;28;20048;-81
2022/05/27 04:01:38;;;;;;;6.75;1.55;;;;;;;15.34;100.00;97754.06;5080397;28;20051;-84
2022/05/27 04:04:06;;;;;;;4.85;1.63;;;;;;;15.31;100.00;97738.38;5079519;28;20117;-81
2022/05/27 04:06:33;;;;;;;8.27;2.10;;;;;;;15.28;100.00;97748.06;5100877;28;20046;-80
2022/05/27 04:09:00;;;;;;;7.25;1.73;;;;;;;15.34;100.00;97763.06;5112060;28;20748;-81
2022/05/27 04:11:30;;;;;;;6.93;1.42;;;;;;;15.34;100.00;97757.59;5096322;28;20051;-83
2022/05/27 04:13:57;;;;;;;6.22;1.60;;;;;;;15.36;100.00;97760.78;5092238;28;20106;-82
2022/05/27 04:16:24;;;;;;;5.32;1.65;;;;;;;15.37;100.00;97762.38;5084285;28;20105;-81
2022/05/27 04:18:51;;;;;;;9.10;1.85;;;;;;;15.29;100.00;97749.66;5082679;28;20040;-79
2022/05/27 04:21:18;;;;;;;10.45;1.80;;;;;;;15.33;100.00;97758.72;5108685;28;20043;-83
2022/05/27 04:23:45;;;;;;;7.47;1.73;;;;;;;15.37;100.00;97767.03;5109706;28;20092;-81
2022/05/27 04:26:11;;;;;;;8.65;1.98;;;;;;;15.34;100.00;97759.53;5107625;28;20152;-80
2022/05/27 04:28:38;;;;;;;8.93;1.90;;;;;;;15.32;100.00;97764.53;5080104;28;20086;-81
2022/05/27 04:31:04;;;;;;;7.72;1.92;;;;;;;15.34;100.00;97751.34;5078480;28;20059;-82
2022/05/27 04:33:31;;;;;;;7.93;1.80;;;;;;;15.30;100.00;97751.25;5079059;28;20071;-82
2022/05/27 04:36:00;;;;;;;5.47;1.65;;;;;;;15.29;100.00;97748.84;5080396;28;20059;-82
2022/05/27 04:38:28;;;;;;;7.25;1.80;;;;;;;15.23;100.00;97753.75;5097027;28;20625;-80
2022/05/27 04:40:55;;;;;;;6.68;1.92;;;;;;;15.28;100.00;97755.47;5077461;28;20411;-81
2022/05/27 04:43:22;;;;;;;11.93;1.80;;;;;;;15.21;100.00;97744.31;5091788;28;20048;-81
2022/05/27 04:45:48;;;;;;;5.32;1.98;;;;;;;15.38;100.00;97744.09;5092564;28;20134;-80
2022/05/27 04:48:17;;;;;;;7.68;1.88;;;;;;;15.38;100.00;97746.81;5093363;28;20050;-80
2022/05/27 04:50:44;;;;;;;6.53;1.95;;;;;;;15.38;100.00;97749.53;5069643;28;20048;-79
2022/05/27 04:53:12;;;;;;;6.00;1.67;;;;;;;15.25;100.00;97754.19;5072903;28;20045;-83
2022/05/27 04:55:41;;;;;;;7.32;2.03;;;;;;;15.15;100.00;97759.34;5056631;28;20531;-80
2022/05/27 04:58:10;;;;;;;8.38;1.60;;;;;;;15.03;100.00;97759.31;5075966;28;20110;-80
2022/05/27 05:00:40;;;;;;;5.13;1.42;;;;;;;14.99;100.00;97753.75;5075656;28;20688;-80
2022/05/27 05:03:06;;;;;;;6.20;1.67;;;;;;;15.00;100.00;97747.16;5072656;28;20226;-80
2022/05/27 05:05:34;;;;;;;6.30;1.95;;;;;;;15.00;100.00;97749.88;5077695;28;20088;-80
2022/05/27 05:08:06;;;;;;;8.38;1.75;;;;;;;15.02;100.00;97752.28;5097651;28;20115;-82
2022/05/27 05:10:33;;;;;;;6.22;1.67;;;;;;;15.03;100.00;97751.13;5096789;28;20051;-83
2022/05/27 05:13:00;;;;;;;5.15;1.70;;;;;;;15.09;100.00;97756.03;5096366;28;20079;-78
2022/05/27 05:15:28;;;;;;;6.82;1.90;;;;;;;14.94;100.00;97734.91;5095888;28;20075;-85
2022/05/27 05:17:55;;;;;;;5.47;1.70;;;;;;;15.15;100.00;97757.38;5079512;28;20080;-82
2022/05/27 05:20:25;;;;;;;7.18;1.77;;;;;;;15.14;100.00;97769.44;5081133;28;20075;-79
2022/05/27 05:22:51;;;;;;;7.35;2.00;;;;;;;15.11;100.00;97759.22;5105949;28;20052;-78
2022/05/27 05:25:18;;;;;;;10.80;2.03;;;;;;;15.11;100.00;97759.22;5106759;28;20059;-78
2022/05/27 05:27:44;;;;;;;8.95;1.80;;;;;;;15.11;100.00;97752.94;5104848;28;20048;-84
2022/05/27 05:30:17;;;;;;;9.98;1.83;;;;;;;15.14;100.00;97755.81;5098255;28;20056;-85
2022/05/27 05:32:44;;;;;;;7.88;2.00;;;;;;;15.24;100.00;97758.06;5077993;28;20048;-84
2022/05/27 05:35:12;;;;;;;7.45;1.80;;;;;;;15.26;100.00;97760.44;5096737;28;20101;-86
2022/05/27 05:37:39;;;;;;;8.30;2.00;;;;;;;15.34;100.00;97752.16;5091489;28;20101;-81
2022/05/27 05:40:07;;;;;;;5.38;1.80;;;;;;;15.36;100.00;97757.25;5074609;28;20074;-80
2022/05/27 05:42:34;;;;;;;6.38;2.08;;;;;;;15.27;100.00;97743.75;5094707;28;20115;-84
2022/05/27 05:45:01;;;;;;;6.78;2.08;;;;;;;15.28;100.00;97747.28;5097373;28;20051;-82
2022/05/27 05:47:27;;;;;;;7.03;2.17;;;;;;;15.23;100.00;97745.56;5080380;28;20494;-81
2022/05/27 05:49:54;;;;;;;6.18;1.75;;;;;;;15.34;100.00;97754.88;5100049;28;20689;-83
2022/05/27 05:52:20;;;;;;;7.00;1.70;;;;;;;15.33;100.00;97756.00;5078514;28;20094;-84
2022/05/27 05:54:47;;;;;;;8.02;1.75;;;;;;;15.25;100.00;97765.09;5102683;28;20086;-80
2022/05/27 05:57:14;;;;;;;6.63;1.80;;;;;;;15.12;100.00;97758.09;5106373;28;20548;-80
2022/05/27 05:59:40;;;;;;;4.43;1.63;;;;;;;15.10;100.00;97756.84;5109855;28;20051;-80
2022/05/27 06:02:08;;;;;;;7.95;1.80;;;;;;;15.17;100.00;97762.50;5079501;28;20043;-80
2022/05/27 06:04:35;;;;;;;5.50;1.70;;;;;;;15.23;100.00;97756.47;5085914;28;20064;-78
2022/05/27 06:07:08;;;;;;;9.13;1.75;;;;;;;15.30;100.00;97766.81;5112597;28;20051;-84
2022/05/27 06:09:36;;;;;;;6.28;1.95;;;;;;;15.27;100.00;97756.59;5088824;28;20134;-80
2022/05/27 06:12:03;;;;;;;4.55;1.75;;;;;;;15.33;100.00;97766.91;5091888;28;20082;-82
2022/05/27 06:14:30;;;;;;;7.32;1.90;;;;;;;15.28;100.00;97763.66;5087871;28;20515;-80
2022/05/27 06:16:56;;;;;;;5.93;1.83;;;;;;;15.25;100.00;97761.59;5121839;28;20073;-83
2022/05/27 06:19:23;;;;;;;7.72;1.80;;;;;;;15.35;100.00;97769.31;5090641;28;20067;-79
2022/05/27 06:21:50;;;;;;;8.20;1.77;;;;;;;15.30;100.00;97769.56;5114158;28;20039;-81
2022/05/27 06:24:18;;;;;;;6.25;1.80;;;;;;;15.37;100.00;97767.03;5092628;28;20040;-79
2022/05/27 06:26:45;;;;;;;3.75;1.70;;;;;;;15.30;100.00;97766.81;5102446;28;20055;-81
2022/05/27 06:34:42;;;;;;;6.25;1.80;;;;;;;15.27;100.00;97783.88;5092466;28;20428;-83
2022/05/27 06:37:14;;;;;;;4.22;1.80;;;;;;;15.20;100.00;97781.69;5072604;28;20083;-80
2022/05/27 06:39:41;;;;;;;8.88;2.05;;;;;;;15.03;100.00;97771.00;5093301;28;20052;-83
2022/05/27 06:42:10;;;;;;;5.70;1.90;;;;;;;14.95;100.00;97783.63;5101446;28;20206;-81
2022/05/27 06:44:57;;;;;;;6.45;2.03;;;;;;;14.83;100.00;97772.72;5098591;28;20040;-80
2022/05/27 06:47:24;;;;;;;7.22;2.00;;;;;;;14.78;100.00;97797.47;5110089;28;20071;-81
2022/05/27 06:49:51;;;;;;;4.30;1.90;;;;;;;14.59;100.00;97778.09;5109750;28;20059;-83
2022/05/27 06:52:19;;;;;;;5.15;2.00;;;;;;;14.61;100.00;97796.84;5102409;28;20040;-84
2022/05/27 06:54:45;;;;;;;11.98;2.95;;;;;;;14.41;100.00;97793.03;5108342;28;20528;-80
2022/05/27 06:57:12;;;;;;;9.57;2.78;;;;;;;14.47;100.00;97805.31;5111550;28;20104;-84
2022/05/27 06:59:39;;;;;;;13.45;2.85;;;;;;;14.28;100.00;97802.25;5079815;28;20052;-83
2022/05/27 07:02:06;;;;;;;10.73;3.10;;;;;;;14.23;100.00;97808.72;5106508;28;20040;-79
2022/05/27 07:04:33;;;;;;;8.20;3.08;;;;;;;14.15;100.00;97814.22;5108968;28;20039;-83
2022/05/27 07:07:03;;;;;;;9.77;3.08;;;;;;;14.10;100.00;97815.22;5080133;28;20976;-82
2022/05/27 07:09:35;;;;;;;10.93;3.00;;;;;;;14.03;100.00;97809.53;5109621;28;20407;-82
2022/05/27 07:12:06;;;;;;;11.25;3.58;;;;;;;14.06;100.00;97814.31;5075404;28;20452;-80
2022/05/27 07:14:33;;;;;;;6.85;3.25;;;;;;;14.22;100.00;97811.78;5085119;28;20032;-78
2022/05/27 07:17:00;;;;;;;8.13;3.58;;;;;;;14.30;100.00;97811.69;5122157;28;20284;-81
2022/05/27 07:19:38;;;;;;;8.38;3.33;;;;;;;14.26;100.00;97805.34;5103498;28;20031;-82
2022/05/27 07:22:06;;;;;;;11.40;3.53;;;;;;;14.11;100.00;97816.03;5115617;28;20104;-81
2022/05/27 07:24:33;;;;;;;10.13;3.70;;;;;;;14.08;100.00;97813.97;5110483;28;20090;-84
2022/05/27 07:26:59;;;;;;;8.98;4.05;;;;;;;14.13;100.00;97811.06;5115614;28;20083;-80
2022/05/27 07:29:26;;;;;;;9.45;3.70;;;;;;;14.09;100.00;97796.53;5077908;28;20149;-83
2022/05/27 07:31:52;;;;;;;9.77;3.83;;;;;;;14.19;100.00;97815.19;5074532;28;20166;-83
2022/05/27 07:34:19;;;;;;;10.15;4.03;;;;;;;14.16;100.00;97816.63;5080427;28;20097;-82
2022/05/27 07:36:46;;;;;;;13.05;4.40;;;;;;;14.26;100.00;97808.06;5076576;28;20070;-83
2022/05/27 07:39:13;;;;;;;7.50;4.05;;;;;;;14.14;100.00;97805.25;5075123;28;20138;-82
2022/05/27 07:41:39;;;;;;;12.30;4.25;;;;;;;14.03;100.00;97801.38;5094651;28;20070;-84
2022/05/27 07:44:08;;;;;;;13.40;4.93;;;;;;;14.03;100.00;97812.25;5095904;28;20074;-82
2022/05/27 07:46:37;;;;;;;11.05;4.50;;;;;;;14.01;100.00;97814.53;5076194;28;20075;-85
2022/05/27 07:49:05;;;;;;;9.88;4.65;;;;;;;14.00;100.00;97812.13;5095735;28;20048;-80
2022/05/27 07:51:51;;;;;;;15.02;5.00;;;;;;;13.95;100.00;97823.22;5094755;28;20060;-85
2022/05/27 07:54:18;;;;;;;9.65;5.20;;;;;;;13.85;100.00;97821.69;5098023;28;20071;-84
2022/05/27 07:56:44;;;;;;;13.43;5.53;;;;;;;13.89;100.00;97816.34;5088229;28;20149;-85
2022/05/27 07:59:11;;;;;;;13.30;5.65;;;;;;;13.93;100.00;97817.31;5113077;28;20056;-82
2022/05/27 08:01:39;;;;;;;14.27;5.35;;;;;;;13.99;100.00;97813.25;5112262;28;20064;-84
2022/05/27 08:04:06;;;;;;;10.18;4.78;;;;;;;13.92;100.00;97805.63;5086825;28;20064;-83
2022/05/27 08:06:33;;;;;;;14.13;5.20;;;;;;;13.81;100.00;97800.91;5082528;28;20044;-85
2022/05/27 08:09:00;;;;;;;17.52;5.32;;;;;;;13.77;100.00;97802.69;5098684;28;20055;-84
2022/05/27 08:11:27;;;;;;;12.43;5.60;;;;;;;13.67;100.00;97795.72;5077065;28;20047;-83
2022/05/27 08:13:55;;;;;;;10.40;5.05;;;;;;;13.72;100.00;97822.72;5085478;28;20048;-80
2022/05/27 08:16:22;;;;;;;15.77;5.63;;;;;;;13.79;100.00;97831.16;5106664;28;20060;-80
2022/05/27 08:18:49;;;;;;;15.90;5.47;;;;;;;13.78;100.00;97832.31;5108941;28;20052;-79
2022/05/27 08:21:18;;;;;;;9.63;4.47;;;;;;;13.65;100.00;97836.84;5088213;28;20072;-82
2022/05/27 08:23:45;;;;;;;3.17;1.50;;;;;;;13.24;100.00;97834.03;5102160;28;20159;-81
2022/05/27 08:26:12;;;;;;;1.98;0.70;;;;;;;12.06;100.00;97842.09;5100723;28;20472;-79
2022/05/27 08:28:38;;;;;;;4.72;0.60;;;;;;;11.63;100.00;97850.97;5092503;28;20590;-78
2022/05/27 08:31:05;;;;;;;1.38;0.70;;;;;;;11.64;100.00;97862.59;5082077;28;20183;-80
2022/05/27 08:39:12;;;;;;;4.15;1.63;;;;;;;11.38;100.00;97873.34;5106403;28;20044;-77
2022/05/27 08:41:54;;;;;;;6.47;1.75;;;;;;;11.59;100.00;97879.00;5090287;28;20058;-78
2022/05/27 08:44:34;;;;;;;5.07;2.00;;;;;;;11.51;100.00;97864.31;5103563;28;20048;-81
2022/05/27 08:47:18;;;;;;;4.75;2.28;;;;;;;11.61;100.00;97874.88;5100530;28;20048;-78
2022/05/27 08:49:48;;;;;;;5.40;1.92;;;;;;;11.74;100.00;97876.69;5103985;28;20068;-79
2022/05/27 08:52:29;;;;;;;5.68;1.88;;;;;;;11.81;100.00;97868.09;5102827;28;20457;-80
2022/05/27 08:55:01;;;;;;;6.22;1.88;;;;;;;11.73;100.00;97885.13;5101970;28;20075;-80
2022/05/27 09:00:20;;;;;;;7.45;2.42;;;;;;;11.61;100.00;97876.78;5103209;28;20077;-80
2022/05/27 09:02:46;;;;;;;5.90;2.33;;;;;;;11.65;100.00;97889.41;5102943;28;20064;-78
2022/05/27 09:05:15;;;;;;;8.50;3.08;;;;;;;11.79;100.00;97884.66;5103386;28;20574;-81
2022/05/27 09:07:56;;;;;;;8.40;2.97;;;;;;;12.04;100.00;97890.47;5098845;28;20078;-81
2022/05/27 09:10:29;;;;;;;7.25;3.05;;;;;;;12.11;100.00;97890.78;5102592;28;20052;-83
2022/05/27 09:13:34;;;;;;;6.70;2.78;;;;;;;12.01;100.00;97886.47;5101997;28;20058;-80
2022/05/27 09:16:16;;;;;;;12.18;3.40;;;;;;;11.92;100.00;97887.56;5116454;28;20043;-80
2022/05/27 09:19:00;;;;;;;5.63;2.83;;;;;;;11.92;100.00;97877.53;5088414;28;20047;-82
2022/05/27 09:22:09;;;;;;;7.72;3.22;;;;;;;11.90;100.00;97885.16;5104653;28;20051;-80
2022/05/27 09:24:47;;;;;;;8.73;3.30;;;;;;;11.95;100.00;97881.53;5112584;28;20100;-79
2022/05/27 09:27:16;;;;;;;2.92;2.00;;;;;;;11.99;100.00;97886.00;5115052;28;20082;-79
2022/05/27 09:29:49;;;;;;;2.58;1.30;;;;;;;11.99;100.00;97896.03;5097951;28;20122;-84
2022/05/27 09:32:40;;;;;;;6.72;1.60;;;;;;;12.01;100.00;97882.94;5113933;28;20043;-82
2022/05/27 09:35:11;;;;;;;2.95;1.70;;;;;;;11.93;100.00;97876.41;5114972;28;20055;-82
2022/05/27 09:38:02;;;;;;;6.05;1.98;;;;;;;12.07;100.00;97897.97;5119244;28;20142;-81
2022/05/27 09:40:38;;;;;;;4.85;2.05;;;;;;;12.10;100.00;97891.91;5119495;28;20051;-81
2022/05/27 09:43:09;;;;;;;2.90;1.88;;;;;;;12.13;100.00;97875.78;5118474;28;20104;-78
2022/05/27 09:45:36;;;;;;;8.57;2.40;;;;;;;12.12;100.00;97866.03;5119565;28;20051;-80
2022/05/27 09:48:06;;;;;;;4.75;2.30;;;;;;;12.37;100.00;97872.56;5118450;28;20100;-83
2022/05/27 09:50:45;;;;;;;5.45;2.20;;;;;;;12.48;100.00;97869.22;5119165;28;20150;-81
2022/05/27 09:53:18;;;;;;;3.90;2.45;;;;;;;12.39;100.00;97873.84;5101940;28;20047;-83
2022/05/27 09:55:53;;;;;;;4.93;2.53;;;;;;;12.56;100.00;97867.63;5119978;28;20044;-85
2022/05/27 09:58:27;;;;;;;4.78;2.28;;;;;;;12.67;100.00;97876.22;5121950;28;20048;-80
2022/05/27 10:00:54;;;;;;;3.38;2.42;;;;;;;12.76;100.00;97866.13;5120015;28;20074;-82
2022/05/27 10:03:36;;;;;;;5.28;2.50;;;;;;;12.67;100.00;97873.53;5080010;28;20056;-85
2022/05/27 10:06:17;;;;;;;2.72;2.22;;;;;;;12.67;100.00;97882.44;5076101;28;20068;-83
2022/05/27 10:08:53;;;;;;;5.43;2.90;;;;;;;12.81;100.00;97879.56;5088154;28;20041;-81
2022/05/27 10:11:27;;;;;;;5.22;2.55;;;;;;;13.03;100.00;97882.06;5089561;28;20048;-83
2022/05/27 10:14:10;;;;;;;5.13;2.30;;;;;;;12.87;100.00;97886.41;5088741;28;20040;-81
2022/05/27 10:16:42;;;;;;;4.40;2.40;;;;;;;12.90;100.00;97881.16;5084537;28;20526;-80
2022/05/27 10:19:14;;;;;;;7.22;2.38;;;;;;;12.87;100.00;97884.50;5092299;28;20106;-83
2022/05/27 10:21:53;;;;;;;5.93;2.50;;;;;;;12.94;100.00;97860.34;5086903;28;20058;-85
2022/05/27 10:24:23;;;;;;;7.10;2.78;;;;;;;13.27;100.00;97867.91;5092686;28;20052;-80
2022/05/27 10:27:07;;;;;;;4.78;2.45;;;;;;;13.36;100.00;97863.25;5095127;28;20112;-80
2022/05/27 10:30:00;;;;;;;9.00;2.28;;;;;;;13.52;100.00;97853.44;5094536;28;20404;-80
2022/05/27 10:32:42;;;;;;;8.77;2.38;;;;;;;13.87;100.00;97845.84;5088718;28;20053;-84
2022/05/27 10:35:21;;;;;;;7.50;2.45;;;;;;;14.03;100.00;97846.84;5084485;28;20052;-83
2022/05/27 10:38:10;;;;;;;8.27;2.30;;;;;;;13.83;100.00;97855.81;5084864;28;20514;-86
2022/05/27 10:40:54;;;;;;;5.57;2.45;;;;;;;13.61;100.00;97848.72;5083270;28;20495;-87
2022/05/27 10:43:32;;;;;;;3.33;1.90;;;;;;;13.40;100.00;97862.25;5082794;28;20106;-86
2022/05/27 10:46:05;;;;;;;5.28;2.50;;;;;;;13.18;100.00;97856.28;5084475;28;20048;-84
2022/05/27 10:49:10;;;;;;;4.13;2.53;;;;;;;13.27;100.00;97866.00;5081914;28;20112;-81
2022/05/27 10:52:33;;;;;;;4.18;2.55;;;;;;;13.25;100.00;97857.38;5047312;28;20075;-81
2022/05/27 10:55:10;;;;;;;3.80;2.53;;;;;;;13.19;100.00;97839.66;5002520;28;20045;-83
2022/05/27 11:04:10;;;;;;;;;;;;;;;13.69;100.00;97831.56;5103579;28;20116;-79
2022/05/27 11:06:53;;;;;;;7.65;2.60;;;;;;;13.68;100.00;97838.09;5073370;28;19920;-80
2022/05/27 11:09:41;;;;;;;8.20;2.80;;;;;;;13.60;100.00;97838.97;5085592;28;20082;-80
2022/05/27 11:12:27;;;;;;;5.82;2.50;;;;;;;13.67;100.00;97836.53;5089736;28;20044;-79
2022/05/27 11:15:11;;;;;;;9.25;3.05;;;;;;;13.47;100.00;97835.34;5090576;28;20074;-81
2022/05/27 11:17:49;;;;;;;11.90;3.10;;;;;;;13.44;100.00;97833.31;5095660;28;20048;-80
2022/05/27 11:20:49;;;;;;;4.60;3.05;;;;;;;13.64;100.00;97840.72;5101526;28;20048;-80
2022/05/27 11:23:53;;;;;;;6.85;3.42;;;;;;;13.51;100.00;97844.47;5077104;28;20044;-80
2022/05/27 11:26:57;;;;;;;8.18;3.60;;;;;;;13.66;100.00;97845.81;5107938;28;20040;-81
2022/05/27 11:29:58;;;;;;;9.90;3.50;;;;;;;13.79;100.00;97838.53;5090367;28;20075;-80
2022/05/27 11:32:49;;;;;;;9.15;3.58;;;;;;;13.85;100.00;97838.00;5110249;28;20048;-80
2022/05/27 11:35:43;;;;;;;4.97;3.20;;;;;;;13.69;100.00;97831.56;5116079;28;20084;-79
2022/05/27 11:38:28;;;;;;;6.35;3.78;;;;;;;13.83;100.00;97829.38;5115875;28;20032;-80
2022/05/27 11:41:19;;;;;;;6.93;3.60;;;;;;;13.49;100.00;97824.97;5102544;28;20121;-83
2022/05/27 11:44:14;;;;;;;7.85;3.83;;;;;;;13.45;100.00;97834.88;5085096;28;20048;-85
2022/05/27 11:46:43;;;;;;;7.88;3.65;;;;;;;13.15;100.00;97833.28;5083814;28;20063;-81
2022/05/27 11:49:47;;;;;;;6.38;3.28;;;;;;;13.25;100.00;97832.91;5083180;28;20056;-82
2022/05/27 11:52:35;;;;;;;9.48;4.10;;;;;;;13.17;100.00;97831.03;5092677;28;20051;-82
2022/05/27 11:55:32;;;;;;;8.40;3.47;;;;;;;13.21;100.00;97823.03;5074967;28;20587;-81
2022/05/27 11:58:20;;;;;;;8.18;3.83;;;;;;;13.19;100.00;97822.56;5095817;28;20083;-85
2022/05/27 12:01:28;;;;;;;7.57;2.88;;;;;;;13.02;100.00;97788.06;5077280;28;20048;-84
2022/05/27 12:04:10;;;;;;;6.65;3.90;;;;;;;13.31;100.00;97803.63;5077084;28;20064;-86
2022/05/27 12:06:38;;;;;;;14.57;4.07;;;;;;;13.71;100.00;97799.38;5060317;28;20051;-82
2022/05/27 12:09:18;;;;;;;11.27;3.38;;;;;;;13.75;100.00;97779.31;5060696;28;20048;-86
2022/05/27 12:11:53;;;;;;;10.38;3.17;;;;;;;14.62;100.00;97793.78;5079362;28;20060;-86
2022/05/27 12:14:38;;;;;;;4.60;2.50;;;;;;;15.93;100.00;97787.09;5059575;28;20568;-81
2022/05/27 12:17:11;;;;;;;7.45;2.40;;;;;;;14.82;100.00;97787.47;5077418;28;20045;-82
2022/05/27 12:19:48;;;;;;;5.55;2.80;;;;;;;14.50;100.00;97780.16;5060786;28;20052;-84
2022/05/27 12:22:22;;;;;;;5.38;2.83;;;;;;;14.50;100.00;97774.69;5060229;28;20132;-82
2022/05/27 12:24:54;;;;;;;7.35;2.50;;;;;;;14.77;100.00;97774.06;5079796;28;20045;-83